MSC Ingrid — HOHA — position and weather

sailwx.info

Track history (hours):
 
Tides and Currents Weather Stations Pressure Air Temp Water Temp Dewpoint Dewpoint Depression Visibility Wind Speed Wind Dir Waves Ship Positions

MSC Ingrid

Last reported at 2014-Oct-27 06:04 UTC. Time now 2014-Oct-31 23:46 UTC.
Position N 26°01' W 077°53'.

Length 294 m; draft 9.8 m.

Type: Ship (hazmat cat A). MMSI: 354505000.

Date/timePositionNaut miles runAvg speedWind from/ knotsBaromVisibWave heightAir tempDewpointWater temp
2014-Oct-27 06:04N 26°01' W 077°53'  
2014-Oct-25 00:16N 32°02' W 080°55'7 9.7
2014-Oct-24 23:34N 32°05' W 081°03'5 5.3
2014-Oct-24 22:34N 32°08' W 081°08'0 0.2
2014-Oct-24 21:31N 32°08' W 081°08'0 0.0
2014-Oct-24 20:31N 32°08' W 081°08'0 0.0
2014-Oct-24 19:31N 32°08' W 081°08'0 0.0
2014-Oct-24 17:33N 32°08' W 081°08'0 0.0
2014-Oct-24 16:33N 32°08' W 081°08'0 0.0
2014-Oct-24 15:31N 32°08' W 081°08'0 0.0
2014-Oct-24 14:28N 32°08' W 081°08'0 0.0
2014-Oct-24 13:21N 32°08' W 081°08'0 0.0
2014-Oct-24 12:28N 32°08' W 081°08'0 0.0
2014-Oct-24 11:31N 32°08' W 081°08'0 0.0
2014-Oct-24 10:33N 32°08' W 081°08'0 0.0
2014-Oct-24 09:28N 32°08' W 081°08'2 2.3
2014-Oct-24 08:33N 32°06' W 081°07'7 7.2
2014-Oct-24 07:33N 32°05' W 080°59'  
2014-Oct-22 03:33N 37°59' W 076°12'5317.8
2014-Oct-22 00:33N 38°51' W 076°24'1615.6
2014-Oct-21 23:33N 39°07' W 076°24'1110.8
2014-Oct-21 22:33N 39°15' W 076°33'1 0.8
2014-Oct-21 21:32N 39°15' W 076°33'0 0.0
2014-Oct-21 20:32N 39°15' W 076°33'0 0.0
2014-Oct-21 19:32N 39°15' W 076°33'0 0.0
2014-Oct-21 18:17N 39°15' W 076°33'0 0.0
2014-Oct-21 17:32N 39°15' W 076°33'0 0.0
2014-Oct-21 16:26N 39°15' W 076°33'0 0.0
2014-Oct-21 15:29N 39°15' W 076°33'0 0.0
2014-Oct-21 14:29N 39°15' W 076°33'0 0.0
2014-Oct-21 12:05N 39°15' W 076°33'0 0.0
2014-Oct-21 10:27N 39°15' W 076°33'0 0.0
2014-Oct-21 09:32N 39°15' W 076°32'0 0.0
2014-Oct-21 08:14N 39°15' W 076°33'2 3.2
2014-Oct-21 07:34N 39°13' W 076°32'1010.2
2014-Oct-21 06:33N 39°05' W 076°24'1514.6
2014-Oct-21 05:33N 38°50' W 076°25'4017.9
2014-Oct-21 03:19N 38°11' W 076°14'1419.2
2014-Oct-21 02:33N 37°57' W 076°10'3917.6
2014-Oct-21 00:20N 37°18' W 076°07'1317.0
2014-Oct-20 23:33N 37°04' W 076°06'1514.3
2014-Oct-20 22:32N 36°54' W 075°53'181 5.0
2014-Oct-19 10:33N 39°28' W 073°53'1817.8
2014-Oct-19 09:33N 39°46' W 073°52'3517.4
2014-Oct-19 07:32N 40°21' W 073°49'1010.6
2014-Oct-19 06:33N 40°30' W 073°56'1211.6
2014-Oct-19 05:34N 40°39' W 074°05'3 3.1
2014-Oct-19 04:34N 40°41' W 074°09'1 0.7
2014-Oct-19 03:33N 40°41' W 074°09'0 0.0
2014-Oct-19 02:33N 40°41' W 074°09'0 0.0
2014-Oct-19 01:30N 40°41' W 074°09'0 0.0
2014-Oct-19 00:33N 40°41' W 074°09'0 0.0
2014-Oct-18 23:30N 40°41' W 074°09'0 0.0
2014-Oct-18 18:06N 40°41' W 074°09'0 0.0
2014-Oct-18 17:30N 40°41' W 074°09'0 0.0
2014-Oct-18 16:12N 40°41' W 074°09'0 0.0
2014-Oct-18 15:21N 40°41' W 074°09'0 0.0
2014-Oct-18 13:09N 40°41' W 074°09'0 0.0
2014-Oct-18 12:27N 40°41' W 074°09'0 0.0
2014-Oct-18 10:21N 40°41' W 074°09'1 1.5
2014-Oct-18 09:33N 40°40' W 074°08'4 4.3
2014-Oct-18 08:33N 40°38' W 074°03'10 9.5
2014-Oct-18 07:33N 40°30' W 073°57'9 9.2
2014-Oct-18 06:33N 40°28' W 073°45'4 3.8
2014-Oct-18 05:33N 40°30' W 073°41'0 0.0
2014-Oct-18 04:33N 40°30' W 073°41'0 0.0
2014-Oct-18 03:33N 40°30' W 073°41'0 0.0
2014-Oct-18 02:33N 40°30' W 073°41'0 0.0
2014-Oct-18 01:33N 40°30' W 073°41'0 0.0
2014-Oct-18 00:33N 40°30' W 073°41'0 0.0
2014-Oct-17 23:33N 40°30' W 073°41'0 0.0
2014-Oct-17 22:29N 40°30' W 073°41'0 0.0
2014-Oct-17 21:32N 40°30' W 073°41'0 0.0
2014-Oct-17 20:32N 40°30' W 073°41'0 0.0
2014-Oct-17 18:29N 40°30' W 073°41'0 0.1
2014-Oct-17 17:32N 40°30' W 073°41'0 0.0
2014-Oct-17 16:32N 40°30' W 073°41'0 0.0
2014-Oct-17 15:29N 40°30' W 073°41'0 0.0
2014-Oct-17 14:26N 40°30' W 073°41'0 0.0
2014-Oct-17 11:14N 40°30' W 073°41'0 0.0
2014-Oct-17 10:32N 40°30' W 073°41'0 0.0
2014-Oct-17 09:32N 40°30' W 073°41'0 0.1
2014-Oct-17 08:32N 40°30' W 073°41'0 0.0
2014-Oct-17 07:32N 40°30' W 073°41'0 0.0
2014-Oct-17 06:32N 40°30' W 073°41'  
Track history (hours):
 
Tides and Currents Weather Stations Pressure Air Temp Water Temp Dewpoint Dewpoint Depression Visibility Wind Speed Wind Dir Waves Ship Positions

MSC Ingrid

Last reported at 2014-Oct-27 06:04 UTC. Time now 2014-Oct-31 23:46 UTC.
Position N 26°01' W 077°53'.

Length 294 m; draft 9.8 m.

Type: Ship (hazmat cat A). MMSI: 354505000.

Date/timePositionNaut miles runAvg speedWind from/ knotsBaromVisibWave heightAir tempDewpointWater temp
2014-Oct-27 06:04N 26°01' W 077°53'  
2014-Oct-25 00:16N 32°02' W 080°55'7 9.7
2014-Oct-24 23:34N 32°05' W 081°03'5 5.3
2014-Oct-24 22:34N 32°08' W 081°08'0 0.2
2014-Oct-24 21:31N 32°08' W 081°08'0 0.0
2014-Oct-24 20:31N 32°08' W 081°08'0 0.0
2014-Oct-24 19:31N 32°08' W 081°08'0 0.0
2014-Oct-24 17:33N 32°08' W 081°08'0 0.0
2014-Oct-24 16:33N 32°08' W 081°08'0 0.0
2014-Oct-24 15:31N 32°08' W 081°08'0 0.0
2014-Oct-24 14:28N 32°08' W 081°08'0 0.0
2014-Oct-24 13:21N 32°08' W 081°08'0 0.0
2014-Oct-24 12:28N 32°08' W 081°08'0 0.0
2014-Oct-24 11:31N 32°08' W 081°08'0 0.0
2014-Oct-24 10:33N 32°08' W 081°08'0 0.0
2014-Oct-24 09:28N 32°08' W 081°08'2 2.3
2014-Oct-24 08:33N 32°06' W 081°07'7 7.2
2014-Oct-24 07:33N 32°05' W 080°59'  
2014-Oct-22 03:33N 37°59' W 076°12'5317.8
2014-Oct-22 00:33N 38°51' W 076°24'1615.6
2014-Oct-21 23:33N 39°07' W 076°24'1110.8
2014-Oct-21 22:33N 39°15' W 076°33'1 0.8
2014-Oct-21 21:32N 39°15' W 076°33'0 0.0
2014-Oct-21 20:32N 39°15' W 076°33'0 0.0
2014-Oct-21 19:32N 39°15' W 076°33'0 0.0
2014-Oct-21 18:17N 39°15' W 076°33'0 0.0
2014-Oct-21 17:32N 39°15' W 076°33'0 0.0
2014-Oct-21 16:26N 39°15' W 076°33'0 0.0
2014-Oct-21 15:29N 39°15' W 076°33'0 0.0
2014-Oct-21 14:29N 39°15' W 076°33'0 0.0
2014-Oct-21 12:05N 39°15' W 076°33'0 0.0
2014-Oct-21 10:27N 39°15' W 076°33'0 0.0
2014-Oct-21 09:32N 39°15' W 076°32'0 0.0
2014-Oct-21 08:14N 39°15' W 076°33'2 3.2
2014-Oct-21 07:34N 39°13' W 076°32'1010.2
2014-Oct-21 06:33N 39°05' W 076°24'1514.6
2014-Oct-21 05:33N 38°50' W 076°25'4017.9
2014-Oct-21 03:19N 38°11' W 076°14'1419.2
2014-Oct-21 02:33N 37°57' W 076°10'3917.6
2014-Oct-21 00:20N 37°18' W 076°07'1317.0
2014-Oct-20 23:33N 37°04' W 076°06'1514.3
2014-Oct-20 22:32N 36°54' W 075°53'181 5.0
2014-Oct-19 10:33N 39°28' W 073°53'1817.8
2014-Oct-19 09:33N 39°46' W 073°52'3517.4
2014-Oct-19 07:32N 40°21' W 073°49'1010.6
2014-Oct-19 06:33N 40°30' W 073°56'1211.6
2014-Oct-19 05:34N 40°39' W 074°05'3 3.1
2014-Oct-19 04:34N 40°41' W 074°09'1 0.7
2014-Oct-19 03:33N 40°41' W 074°09'0 0.0
2014-Oct-19 02:33N 40°41' W 074°09'0 0.0
2014-Oct-19 01:30N 40°41' W 074°09'0 0.0
2014-Oct-19 00:33N 40°41' W 074°09'0 0.0
2014-Oct-18 23:30N 40°41' W 074°09'0 0.0
2014-Oct-18 18:06N 40°41' W 074°09'0 0.0
2014-Oct-18 17:30N 40°41' W 074°09'0 0.0
2014-Oct-18 16:12N 40°41' W 074°09'0 0.0
2014-Oct-18 15:21N 40°41' W 074°09'0 0.0
2014-Oct-18 13:09N 40°41' W 074°09'0 0.0
2014-Oct-18 12:27N 40°41' W 074°09'0 0.0
2014-Oct-18 10:21N 40°41' W 074°09'1 1.5
2014-Oct-18 09:33N 40°40' W 074°08'4 4.3
2014-Oct-18 08:33N 40°38' W 074°03'10 9.5
2014-Oct-18 07:33N 40°30' W 073°57'9 9.2
2014-Oct-18 06:33N 40°28' W 073°45'4 3.8
2014-Oct-18 05:33N 40°30' W 073°41'0 0.0
2014-Oct-18 04:33N 40°30' W 073°41'0 0.0
2014-Oct-18 03:33N 40°30' W 073°41'0 0.0
2014-Oct-18 02:33N 40°30' W 073°41'0 0.0
2014-Oct-18 01:33N 40°30' W 073°41'0 0.0
2014-Oct-18 00:33N 40°30' W 073°41'0 0.0
2014-Oct-17 23:33N 40°30' W 073°41'0 0.0
2014-Oct-17 22:29N 40°30' W 073°41'0 0.0
2014-Oct-17 21:32N 40°30' W 073°41'0 0.0
2014-Oct-17 20:32N 40°30' W 073°41'0 0.0
2014-Oct-17 18:29N 40°30' W 073°41'0 0.1
2014-Oct-17 17:32N 40°30' W 073°41'0 0.0
2014-Oct-17 16:32N 40°30' W 073°41'0 0.0
2014-Oct-17 15:29N 40°30' W 073°41'0 0.0
2014-Oct-17 14:26N 40°30' W 073°41'0 0.0
2014-Oct-17 11:14N 40°30' W 073°41'0 0.0
2014-Oct-17 10:32N 40°30' W 073°41'0 0.0
2014-Oct-17 09:32N 40°30' W 073°41'0 0.1
2014-Oct-17 08:32N 40°30' W 073°41'0 0.0
2014-Oct-17 07:32N 40°30' W 073°41'0 0.0
2014-Oct-17 06:32N 40°30' W 073°41'  

Dump ship's entire track history